createdAt,value
2023-04-27T00:01:12.004Z,98504.63
2023-04-27T00:03:39.334Z,98511.84
2023-04-27T00:06:06.317Z,98511.69
2023-04-27T00:08:33.070Z,98516.28
2023-04-27T00:11:00.614Z,98513.06
2023-04-27T00:13:27.743Z,98517.53
2023-04-27T00:15:54.560Z,98520.59
2023-04-27T00:18:21.290Z,98528.59
2023-04-27T00:20:48.184Z,98525.94
2023-04-27T00:23:14.857Z,98524.94
2023-04-27T00:25:41.594Z,98526.69
2023-04-27T00:28:08.272Z,98524.13
2023-04-27T00:30:35.871Z,98528.59
2023-04-27T00:33:02.630Z,98525.19
2023-04-27T00:35:29.339Z,98528.81
2023-04-27T00:37:58.283Z,98520.88
2023-04-27T00:40:24.900Z,98513.19
2023-04-27T00:42:52.646Z,98524.72
2023-04-27T00:45:19.374Z,98516.81
2023-04-27T00:47:46.219Z,98514.94
2023-04-27T00:50:13.034Z,98506.09
2023-04-27T00:52:39.728Z,98517.53
2023-04-27T00:55:07.174Z,98510.47
2023-04-27T00:57:34.202Z,98512.31
2023-04-27T01:00:02.198Z,98505.28
2023-04-27T01:02:30.264Z,98511.44
2023-04-27T01:04:57.509Z,98505.28
2023-04-27T01:07:27.778Z,98503.66
2023-04-27T01:09:54.473Z,98514.03
2023-04-27T01:12:21.254Z,98518.25
2023-04-27T01:14:48.875Z,98526.09
2023-04-27T01:17:15.627Z,98511.13
2023-04-27T01:19:42.352Z,98516.34
2023-04-27T01:22:10.263Z,98516.44
2023-04-27T01:24:38.025Z,98521.88
2023-04-27T01:27:05.492Z,98518.47
2023-04-27T01:29:32.430Z,98513.03
2023-04-27T01:31:59.338Z,98520.91
2023-04-27T01:34:26.041Z,98524.72
2023-04-27T01:36:52.681Z,98514.13
2023-04-27T01:39:21.477Z,98516.72
2023-04-27T01:41:48.446Z,98513.84
2023-04-27T01:44:15.223Z,98515.78
2023-04-27T01:46:42.010Z,98511.38
2023-04-27T01:49:08.780Z,98519.44
2023-04-27T01:51:35.608Z,98513.19
2023-04-27T01:54:02.234Z,98511.50
2023-04-27T01:56:28.881Z,98512.25
2023-04-27T01:58:56.035Z,98508.72
2023-04-27T02:01:22.882Z,98516.81
2023-04-27T02:03:49.856Z,98516.94
2023-04-27T02:06:16.719Z,98517.75
2023-04-27T02:08:43.439Z,98517.59
2023-04-27T02:11:10.306Z,98516.72
2023-04-27T02:13:37.039Z,98515.91
2023-04-27T02:16:05.189Z,98519.56
2023-04-27T02:18:33.668Z,98517.81
2023-04-27T02:23:27.581Z,98509.94
2023-04-27T02:25:54.316Z,98507.38
2023-04-27T02:28:21.125Z,98505.53
2023-04-27T02:30:48.408Z,98509.88
2023-04-27T02:33:15.129Z,98517.81
2023-04-27T02:35:41.794Z,98514.28
2023-04-27T02:38:08.530Z,98518.66
2023-04-27T02:40:37.699Z,98521.47
2023-04-27T02:43:06.457Z,98528.63
2023-04-27T02:45:37.889Z,98527.91
2023-04-27T02:48:06.223Z,98533.31
2023-04-27T02:50:34.125Z,98523.81
2023-04-27T02:53:04.078Z,98536.16
2023-04-27T02:55:30.861Z,98532.63
2023-04-27T02:57:57.474Z,98526.41
2023-04-27T03:00:24.403Z,98536.06
2023-04-27T03:02:51.267Z,98535.16
2023-04-27T03:05:18.789Z,98532.41
2023-04-27T03:07:45.370Z,98531.56
2023-04-27T03:10:12.091Z,98528.31
2023-04-27T03:12:38.725Z,98530.06
2023-04-27T03:15:06.049Z,98527.41
2023-04-27T03:17:35.872Z,98526.41
2023-04-27T03:20:04.895Z,98519.31
2023-04-27T03:22:31.524Z,98525.47
2023-04-27T03:24:58.197Z,98519.34
2023-04-27T03:27:24.806Z,98521.06
2023-04-27T03:29:53.592Z,98514.91
2023-04-27T03:32:20.289Z,98514.91
2023-04-27T03:34:46.956Z,98515.94
2023-04-27T03:37:13.599Z,98510.84
2023-04-27T03:39:40.476Z,98506.38
2023-04-27T03:42:09.602Z,98506.44
2023-04-27T03:44:36.422Z,98511.78
2023-04-27T03:47:03.804Z,98510.09
2023-04-27T03:49:30.656Z,98515.44
2023-04-27T03:51:57.436Z,98516.31
2023-04-27T03:54:24.148Z,98509.41
2023-04-27T03:56:50.865Z,98521.72
2023-04-27T03:59:18.513Z,98523.53
2023-04-27T04:01:49.308Z,98533.34
2023-04-27T04:04:16.788Z,98523.91
2023-04-27T04:06:43.601Z,98520.31
2023-04-27T04:09:12.674Z,98527.41
2023-04-27T04:11:40.069Z,98522.22
2023-04-27T04:14:08.947Z,98531.06
2023-04-27T04:16:35.609Z,98524.91
2023-04-27T04:19:02.265Z,98525.06
2023-04-27T04:21:29.089Z,98528.53
2023-04-27T04:23:56.328Z,98522.38
2023-04-27T04:26:23.557Z,98523.34
2023-04-27T04:28:50.191Z,98525.84
2023-04-27T04:31:18.184Z,98522.25
2023-04-27T04:33:44.931Z,98524.97
2023-04-27T04:36:11.654Z,98532.97
2023-04-27T04:38:38.363Z,98531.28
2023-04-27T04:41:05.278Z,98529.41
2023-04-27T04:43:33.309Z,98530.88
2023-04-27T04:46:03.568Z,98534.41
2023-04-27T04:48:30.290Z,98531.69
2023-04-27T04:50:57.227Z,98535.09
2023-04-27T04:53:23.962Z,98536.81
2023-04-27T04:55:50.722Z,98546.41
2023-04-27T04:58:17.450Z,98548.94
2023-04-27T05:00:44.321Z,98550.44
2023-04-27T05:03:11.207Z,98558.19
2023-04-27T05:05:37.996Z,98557.25
2023-04-27T05:08:04.922Z,98555.28
2023-04-27T05:10:31.821Z,98546.47
2023-04-27T05:12:58.579Z,98554.25
2023-04-27T05:15:25.310Z,98556.84
2023-04-27T05:17:54.095Z,98556.81
2023-04-27T05:20:21.209Z,98558.66
2023-04-27T05:22:47.858Z,98563.97
2023-04-27T05:25:14.499Z,98565.84
2023-04-27T05:27:41.151Z,98567.53
2023-04-27T05:30:08.346Z,98566.78
2023-04-27T05:32:36.784Z,98567.66
2023-04-27T05:35:04.919Z,98558.66
2023-04-27T05:37:31.543Z,98562.19
2023-04-27T05:39:58.172Z,98565.59
2023-04-27T05:42:24.788Z,98564.00
2023-04-27T05:44:51.369Z,98567.03
2023-04-27T05:47:18.005Z,98554.34
2023-04-27T05:49:44.632Z,98551.72
2023-04-27T05:52:11.366Z,98543.81
2023-04-27T05:54:38.227Z,98543.25
2023-04-27T05:57:04.994Z,98539.38
2023-04-27T05:59:31.757Z,98541.66
2023-04-27T06:01:58.617Z,98537.72
2023-04-27T06:04:25.699Z,98532.44
2023-04-27T06:06:52.469Z,98532.09
2023-04-27T06:09:19.094Z,98530.25
2023-04-27T06:11:47.379Z,98529.16
2023-04-27T06:14:14.085Z,98528.00
2023-04-27T06:16:41.072Z,98526.78
2023-04-27T06:19:07.764Z,98524.41
2023-04-27T06:21:35.455Z,98520.03
2023-04-27T06:24:02.362Z,98515.53
2023-04-27T06:26:29.049Z,98512.84
2023-04-27T06:28:56.224Z,98517.56
2023-04-27T06:31:23.159Z,98522.56
2023-04-27T06:33:49.892Z,98517.91
2023-04-27T06:36:16.564Z,98518.69
2023-04-27T06:38:43.247Z,98516.75
2023-04-27T06:41:09.982Z,98518.56
2023-04-27T06:43:38.116Z,98518.19
2023-04-27T06:46:06.399Z,98515.53
2023-04-27T06:48:33.045Z,98511.66
2023-04-27T06:50:59.666Z,98511.00
2023-04-27T06:53:26.883Z,98512.28
2023-04-27T06:55:53.765Z,98526.50
2023-04-27T06:58:20.357Z,98534.28
2023-04-27T07:00:47.003Z,98527.22
2023-04-27T07:03:14.437Z,98537.19
2023-04-27T07:05:41.238Z,98539.56
2023-04-27T07:08:08.818Z,98543.09
2023-04-27T07:10:36.053Z,98545.22
2023-04-27T07:13:02.775Z,98547.88
2023-04-27T07:15:31.406Z,98527.88
2023-04-27T07:17:58.070Z,98537.03
2023-04-27T07:20:25.149Z,98537.38
2023-04-27T07:22:51.887Z,98547.56
2023-04-27T07:25:19.537Z,98545.06
2023-04-27T07:27:46.820Z,98540.00
2023-04-27T07:30:14.298Z,98548.81
2023-04-27T07:32:44.274Z,98547.09
2023-04-27T07:35:11.093Z,98546.75
2023-04-27T07:37:38.371Z,98540.72
2023-04-27T07:40:14.344Z,98542.41
2023-04-27T07:42:42.031Z,98542.41
2023-04-27T07:45:09.649Z,98533.88
2023-04-27T07:47:37.122Z,98526.50
2023-04-27T07:50:04.685Z,98527.31
2023-04-27T07:52:31.450Z,98521.88
2023-04-27T07:54:58.162Z,98517.63
2023-04-27T07:57:24.862Z,98517.56
2023-04-27T07:59:51.505Z,98522.09
2023-04-27T08:02:20.119Z,98517.44
2023-04-27T08:04:48.614Z,98513.56
2023-04-27T08:07:20.068Z,98520.72
2023-04-27T08:09:46.822Z,98530.31
2023-04-27T08:12:13.489Z,98526.00
2023-04-27T08:14:40.205Z,98523.53
2023-04-27T08:17:07.029Z,98525.78
2023-04-27T08:19:34.306Z,98526.50
2023-04-27T08:22:01.061Z,98518.19
2023-04-27T08:24:27.706Z,98516.91
2023-04-27T08:26:54.441Z,98515.34
2023-04-27T08:29:27.920Z,98518.91
2023-04-27T08:31:58.645Z,98526.41
2023-04-27T08:34:25.757Z,98513.03
2023-04-27T08:36:53.105Z,98511.13
2023-04-27T08:39:20.493Z,98503.97
2023-04-27T08:41:47.128Z,98502.16
2023-04-27T08:44:13.752Z,98506.88
2023-04-27T08:46:40.927Z,98502.75
2023-04-27T08:49:10.733Z,98505.72
2023-04-27T08:51:37.454Z,98509.47
2023-04-27T08:54:04.528Z,98498.09
2023-04-27T08:56:31.362Z,98483.75
2023-04-27T08:59:00.633Z,98481.81
2023-04-27T09:01:27.714Z,98475.00
2023-04-27T09:04:02.284Z,98468.00
2023-04-27T09:06:33.560Z,98459.72
2023-04-27T09:09:01.413Z,98466.81
2023-04-27T09:11:35.921Z,98463.41
2023-04-27T09:14:16.740Z,98469.63
2023-04-27T09:16:44.494Z,98463.06
2023-04-27T09:19:11.787Z,98467.28
2023-04-27T09:21:38.649Z,98462.16
2023-04-27T09:24:12.951Z,98454.44
2023-04-27T09:26:42.059Z,98449.91
2023-04-27T09:29:09.113Z,98453.66
2023-04-27T09:31:36.588Z,98460.28
2023-04-27T09:34:04.541Z,98466.59
2023-04-27T09:36:32.592Z,98468.50
2023-04-27T09:39:04.677Z,98459.50
2023-04-27T09:41:33.251Z,98464.94
2023-04-27T09:44:01.680Z,98467.78
2023-04-27T09:46:29.825Z,98471.28
2023-04-27T09:48:57.522Z,98478.31
2023-04-27T09:51:24.380Z,98464.81
2023-04-27T09:53:58.610Z,98455.25
2023-04-27T09:56:34.626Z,98453.31
2023-04-27T09:59:17.938Z,98448.88
2023-04-27T10:01:51.919Z,98438.97
2023-04-27T10:04:37.598Z,98441.38
2023-04-27T10:07:09.961Z,98450.25
2023-04-27T10:09:48.425Z,98449.94
2023-04-27T10:12:42.703Z,98446.72
2023-04-27T10:15:16.975Z,98447.88
2023-04-27T10:17:53.179Z,98444.28
2023-04-27T10:20:30.657Z,98447.63
2023-04-27T10:22:58.543Z,98447.78
2023-04-27T10:25:30.253Z,98460.34
2023-04-27T10:28:01.911Z,98457.19
2023-04-27T10:30:34.350Z,98454.63
2023-04-27T10:33:07.366Z,98444.13
2023-04-27T10:35:41.439Z,98446.59
2023-04-27T10:38:11.136Z,98443.44
2023-04-27T10:40:38.805Z,98438.19
2023-04-27T10:43:16.145Z,98441.69
2023-04-27T10:45:43.990Z,98441.59
2023-04-27T10:48:15.756Z,98447.78
2023-04-27T10:50:44.806Z,98445.66
2023-04-27T10:53:11.609Z,98425.97
2023-04-27T10:55:38.309Z,98417.28
2023-04-27T10:58:05.231Z,98415.88
2023-04-27T11:00:38.876Z,98419.38
2023-04-27T11:03:24.257Z,98400.09
2023-04-27T11:06:04.157Z,98397.25
2023-04-27T11:08:32.571Z,98397.00
2023-04-27T11:10:59.302Z,98402.25
2023-04-27T11:13:28.196Z,98394.56
2023-04-27T11:15:59.770Z,98395.91
2023-04-27T11:18:29.783Z,98389.56
2023-04-27T11:21:25.992Z,98396.69
2023-04-27T11:23:53.390Z,98393.38
2023-04-27T11:26:21.993Z,98390.38
2023-04-27T11:29:14.096Z,98386.66
2023-04-27T11:31:49.460Z,98387.66
2023-04-27T11:34:22.726Z,98382.44
2023-04-27T11:39:35.149Z,98389.28
2023-04-27T11:42:18.298Z,98388.19
2023-04-27T11:44:59.192Z,98395.03
2023-04-27T11:47:27.836Z,98392.41
2023-04-27T11:50:00.248Z,98402.91
2023-04-27T11:52:35.871Z,98397.41
2023-04-27T11:55:08.427Z,98393.00
2023-04-27T11:57:36.086Z,98385.44
2023-04-27T12:00:10.775Z,98388.47
2023-04-27T12:02:42.084Z,98380.31
2023-04-27T12:05:10.151Z,98378.41
2023-04-27T12:07:37.001Z,98373.75
2023-04-27T12:10:04.501Z,98383.66
2023-04-27T12:12:31.233Z,98383.94
2023-04-27T12:14:58.707Z,98388.22
2023-04-27T12:17:25.433Z,98381.22
2023-04-27T12:19:52.573Z,98380.72
2023-04-27T12:22:19.399Z,98381.28
2023-04-27T12:24:46.274Z,98392.19
2023-04-27T12:27:13.009Z,98386.25
2023-04-27T12:29:39.679Z,98381.38
2023-04-27T12:32:06.672Z,98390.31
2023-04-27T12:34:34.402Z,98390.34
2023-04-27T12:37:01.078Z,98386.88
2023-04-27T12:39:27.678Z,98392.44
2023-04-27T12:41:54.288Z,98388.94
2023-04-27T12:44:21.398Z,98389.09
2023-04-27T12:46:48.660Z,98370.78
2023-04-27T12:49:15.736Z,98383.69
2023-04-27T12:51:42.732Z,98385.41
2023-04-27T12:54:11.231Z,98376.63
2023-04-27T12:56:38.058Z,98373.16
2023-04-27T12:59:05.880Z,98379.13
2023-04-27T13:01:33.217Z,98385.59
2023-04-27T13:04:01.971Z,98377.25
2023-04-27T13:06:31.132Z,98371.22
2023-04-27T13:09:01.221Z,98376.97
2023-04-27T13:11:28.041Z,98376.44
2023-04-27T13:13:57.574Z,98373.25
2023-04-27T13:16:25.538Z,98368.13
2023-04-27T13:18:53.502Z,98371.16
2023-04-27T13:21:20.510Z,98377.88
2023-04-27T13:23:47.964Z,98376.06
2023-04-27T13:26:16.209Z,98373.69
2023-04-27T13:28:43.222Z,98385.34
2023-04-27T13:31:10.305Z,98384.09
2023-04-27T13:33:41.864Z,98384.03
2023-04-27T13:36:12.713Z,98382.59
2023-04-27T13:38:39.764Z,98390.34
2023-04-27T13:41:06.873Z,98377.56
2023-04-27T13:43:33.650Z,98386.00
2023-04-27T13:46:03.618Z,98380.69
2023-04-27T13:48:31.142Z,98379.38
2023-04-27T13:50:58.157Z,98376.50
2023-04-27T13:53:25.926Z,98379.84
2023-04-27T13:55:57.181Z,98379.75
2023-04-27T13:58:26.121Z,98377.66
2023-04-27T14:00:53.818Z,98378.28
2023-04-27T14:03:21.622Z,98370.19
2023-04-27T14:05:50.940Z,98378.25
2023-04-27T14:08:18.094Z,98372.97
2023-04-27T14:10:45.568Z,98372.88
2023-04-27T14:13:12.838Z,98363.53
2023-04-27T14:15:39.667Z,98375.47
2023-04-27T14:18:07.807Z,98371.44
2023-04-27T14:20:35.629Z,98375.22
2023-04-27T14:23:04.010Z,98368.97
2023-04-27T14:25:32.819Z,98366.03
2023-04-27T14:28:04.649Z,98365.22
2023-04-27T14:30:32.587Z,98367.53
2023-04-27T14:32:59.636Z,98364.47
2023-04-27T14:35:27.599Z,98362.78
2023-04-27T14:37:56.644Z,98358.41
2023-04-27T14:40:23.261Z,98353.41
2023-04-27T14:42:49.905Z,98340.22
2023-04-27T14:45:18.236Z,98347.38
2023-04-27T14:47:45.104Z,98346.59
2023-04-27T14:50:12.033Z,98353.47
2023-04-27T14:52:39.054Z,98346.59
2023-04-27T14:55:07.027Z,98339.31
2023-04-27T14:57:33.877Z,98332.53
2023-04-27T15:00:00.909Z,98337.25
2023-04-27T15:02:27.647Z,98327.03
2023-04-27T15:04:54.470Z,98323.47
2023-04-27T15:07:21.374Z,98328.41
2023-04-27T15:09:48.219Z,98317.19
2023-04-27T15:12:14.836Z,98322.50
2023-04-27T15:14:41.548Z,98315.69
2023-04-27T15:17:08.169Z,98309.03
2023-04-27T15:19:34.901Z,98311.44
2023-04-27T15:22:01.904Z,98307.09
2023-04-27T15:24:28.806Z,98297.25
2023-04-27T15:26:55.936Z,98304.66
2023-04-27T15:29:22.818Z,98302.31
2023-04-27T15:31:49.876Z,98305.56
2023-04-27T15:34:16.749Z,98301.28
2023-04-27T15:36:43.494Z,98302.09
2023-04-27T15:39:10.426Z,98302.03
2023-04-27T15:41:37.191Z,98301.97
2023-04-27T15:44:05.173Z,98301.75
2023-04-27T15:46:31.940Z,98307.47
2023-04-27T15:48:58.617Z,98302.94
2023-04-27T15:51:25.351Z,98296.19
2023-04-27T15:53:51.993Z,98292.28
2023-04-27T15:56:18.655Z,98289.81
2023-04-27T15:58:47.903Z,98288.19
2023-04-27T16:01:14.725Z,98291.78
2023-04-27T16:03:41.511Z,98281.88
2023-04-27T16:06:08.229Z,98290.94
2023-04-27T16:08:34.948Z,98298.78
2023-04-27T16:11:01.721Z,98291.38
2023-04-27T16:13:28.555Z,98292.88
2023-04-27T16:15:55.408Z,98281.53
2023-04-27T16:18:22.121Z,98283.59
2023-04-27T16:20:48.769Z,98283.53
2023-04-27T16:23:16.222Z,98283.16
2023-04-27T16:25:42.873Z,98284.53
2023-04-27T16:28:09.658Z,98279.44
2023-04-27T16:30:37.868Z,98277.00
2023-04-27T16:33:04.740Z,98275.72
2023-04-27T16:35:33.430Z,98275.66
2023-04-27T16:38:00.276Z,98273.38
2023-04-27T16:40:26.995Z,98272.31
2023-04-27T16:42:53.691Z,98278.28
2023-04-27T16:45:20.544Z,98270.50
2023-04-27T16:47:47.632Z,98263.19
2023-04-27T16:50:14.482Z,98267.47
2023-04-27T16:52:41.136Z,98264.91
2023-04-27T16:55:08.369Z,98266.84
2023-04-27T16:57:35.704Z,98268.56
2023-04-27T17:00:02.399Z,98270.84
2023-04-27T17:02:29.183Z,98268.59
2023-04-27T17:04:56.118Z,98267.19
2023-04-27T17:07:22.820Z,98263.53
2023-04-27T17:09:49.453Z,98258.59
2023-04-27T17:12:16.777Z,98254.91
2023-04-27T17:14:43.496Z,98250.28
2023-04-27T17:17:10.503Z,98258.88
2023-04-27T17:19:37.210Z,98257.25
2023-04-27T17:22:04.324Z,98259.09
2023-04-27T17:24:30.999Z,98243.88
2023-04-27T17:26:57.634Z,98243.25
2023-04-27T17:29:24.364Z,98248.22
2023-04-27T17:31:51.025Z,98248.00
2023-04-27T17:34:17.806Z,98250.34
2023-04-27T17:36:45.646Z,98247.97
2023-04-27T17:39:13.460Z,98248.13
2023-04-27T17:41:40.687Z,98250.00
2023-04-27T17:44:07.362Z,98252.53
2023-04-27T17:46:34.200Z,98255.47
2023-04-27T17:49:00.934Z,98255.91
2023-04-27T17:51:27.569Z,98252.91
2023-04-27T17:53:54.240Z,98248.41
2023-04-27T17:56:20.910Z,98250.66
2023-04-27T17:58:47.542Z,98249.91
2023-04-27T18:01:14.301Z,98247.31
2023-04-27T18:03:42.123Z,98241.75
2023-04-27T18:06:09.177Z,98245.41
2023-04-27T18:08:35.932Z,98251.81
2023-04-27T18:11:02.744Z,98242.88
2023-04-27T18:13:31.747Z,98259.75
2023-04-27T18:15:59.222Z,98253.44
2023-04-27T18:18:26.773Z,98251.91
2023-04-27T18:20:53.514Z,98250.38
2023-04-27T18:23:20.624Z,98250.13
2023-04-27T18:25:47.342Z,98245.53
2023-04-27T18:28:14.169Z,98243.34
2023-04-27T18:30:41.445Z,98244.03
2023-04-27T18:33:08.217Z,98237.59
2023-04-27T18:35:35.056Z,98243.94
2023-04-27T18:38:01.686Z,98248.19
2023-04-27T18:40:28.414Z,98243.84
2023-04-27T18:42:55.013Z,98252.03
2023-04-27T18:45:21.707Z,98241.38
2023-04-27T18:47:48.468Z,98248.75
2023-04-27T18:50:15.205Z,98246.28
2023-04-27T18:52:41.888Z,98240.50
2023-04-27T18:55:09.195Z,98236.47
2023-04-27T18:57:36.139Z,98231.47
2023-04-27T19:00:08.078Z,98239.81
2023-04-27T19:02:35.040Z,98238.28
2023-04-27T19:07:34.203Z,98233.69
2023-04-27T19:10:00.848Z,98226.00
2023-04-27T19:12:27.500Z,98225.25
2023-04-27T19:14:54.148Z,98224.56
2023-04-27T19:17:20.981Z,98238.03
2023-04-27T19:19:48.394Z,98239.16
2023-04-27T19:22:15.102Z,98251.19
2023-04-27T19:24:41.763Z,98241.28
2023-04-27T19:27:09.050Z,98238.84
2023-04-27T19:29:49.532Z,98241.22
2023-04-27T19:32:16.317Z,98232.59
2023-04-27T19:34:42.981Z,98236.91
2023-04-27T19:37:09.656Z,98234.72
2023-04-27T19:39:36.404Z,98236.59
2023-04-27T19:42:03.161Z,98241.91
2023-04-27T19:44:29.928Z,98243.22
2023-04-27T19:46:56.841Z,98240.56
2023-04-27T19:49:23.503Z,98252.16
2023-04-27T19:51:50.217Z,98252.66
2023-04-27T19:54:17.111Z,98243.06
2023-04-27T19:56:43.891Z,98250.66
2023-04-27T19:59:10.554Z,98241.19
2023-04-27T20:01:37.264Z,98252.78
2023-04-27T20:04:04.155Z,98249.16
2023-04-27T20:06:32.267Z,98249.03
2023-04-27T20:08:58.917Z,98254.84
2023-04-27T20:11:25.689Z,98246.53
2023-04-27T20:13:52.280Z,98236.97
2023-04-27T20:16:19.803Z,98242.31
2023-04-27T20:18:46.632Z,98241.56
2023-04-27T20:21:13.423Z,98239.75
2023-04-27T20:23:40.127Z,98242.50
2023-04-27T20:26:06.732Z,98236.22
2023-04-27T20:28:33.631Z,98242.88
2023-04-27T20:31:00.430Z,98244.75
2023-04-27T20:33:27.064Z,98250.91
2023-04-27T20:35:55.461Z,98253.47
2023-04-27T20:38:23.696Z,98252.59
2023-04-27T20:40:53.413Z,98250.91
2023-04-27T20:43:21.088Z,98239.75
2023-04-27T20:45:47.860Z,98237.66
2023-04-27T20:48:14.565Z,98232.31
2023-04-27T20:50:41.329Z,98234.31
2023-04-27T20:53:08.482Z,98232.31
2023-04-27T20:55:35.116Z,98226.88
2023-04-27T20:58:01.794Z,98226.97
2023-04-27T21:00:28.445Z,98223.16
2023-04-27T21:02:55.220Z,98210.28
2023-04-27T21:05:21.951Z,98213.47
2023-04-27T21:07:48.749Z,98211.25
2023-04-27T21:10:16.793Z,98205.72
2023-04-27T21:12:43.906Z,98206.13
2023-04-27T21:15:10.889Z,98204.59
2023-04-27T21:17:37.713Z,98198.28
2023-04-27T21:20:04.771Z,98177.59
2023-04-27T21:22:31.815Z,98190.84
2023-04-27T21:24:58.406Z,98193.91
2023-04-27T21:27:25.117Z,98188.09
2023-04-27T21:29:51.942Z,98187.16
2023-04-27T21:32:18.545Z,98185.59
2023-04-27T21:34:45.276Z,98189.47
2023-04-27T21:37:11.984Z,98188.59
2023-04-27T21:39:38.665Z,98193.63
2023-04-27T21:42:05.406Z,98191.53
2023-04-27T21:44:32.046Z,98190.59
2023-04-27T21:46:58.824Z,98185.00
2023-04-27T21:49:26.177Z,98187.75
2023-04-27T21:51:52.922Z,98185.53
2023-04-27T21:54:19.563Z,98184.66
2023-04-27T21:56:46.284Z,98173.63
2023-04-27T21:59:12.914Z,98167.13
2023-04-27T22:01:39.762Z,98162.47
2023-04-27T22:04:06.854Z,98162.81
2023-04-27T22:06:33.602Z,98162.66
2023-04-27T22:09:00.773Z,98161.72
2023-04-27T22:11:27.559Z,98155.81
2023-04-27T22:13:54.278Z,98151.84
2023-04-27T22:16:22.085Z,98148.75
2023-04-27T22:18:48.780Z,98139.16
2023-04-27T22:21:15.568Z,98149.63
2023-04-27T22:23:42.218Z,98149.28
2023-04-27T22:26:09.090Z,98137.72
2023-04-27T22:28:35.946Z,98144.19
2023-04-27T22:31:03.551Z,98144.59
2023-04-27T22:33:31.455Z,98141.69
2023-04-27T22:35:59.260Z,98146.50
2023-04-27T22:38:26.033Z,98156.00
2023-04-27T22:40:52.661Z,98156.75
2023-04-27T22:43:19.336Z,98152.84
2023-04-27T22:45:45.994Z,98148.44
2023-04-27T22:48:12.909Z,98148.66
2023-04-27T22:50:39.548Z,98149.34
2023-04-27T22:53:06.420Z,98151.50
2023-04-27T22:55:33.089Z,98157.03
2023-04-27T22:57:59.710Z,98156.50
2023-04-27T23:00:26.662Z,98152.09
2023-04-27T23:02:53.580Z,98154.47
2023-04-27T23:05:20.374Z,98151.19
2023-04-27T23:07:47.027Z,98149.69
2023-04-27T23:10:15.062Z,98168.00
2023-04-27T23:12:41.820Z,98158.38
2023-04-27T23:15:09.505Z,98164.56
2023-04-27T23:17:36.485Z,98170.97
2023-04-27T23:20:24.019Z,98173.19
2023-04-27T23:22:53.944Z,98181.56
2023-04-27T23:25:20.646Z,98176.22
2023-04-27T23:27:48.086Z,98171.50
2023-04-27T23:30:16.090Z,98171.97
2023-04-27T23:32:43.197Z,98177.84
2023-04-27T23:35:10.016Z,98163.66
2023-04-27T23:37:36.617Z,98166.81
2023-04-27T23:40:04.380Z,98157.41
2023-04-27T23:42:31.127Z,98155.66
2023-04-27T23:44:58.343Z,98158.16
2023-04-27T23:47:25.112Z,98161.63
2023-04-27T23:49:51.913Z,98161.00
2023-04-27T23:52:18.640Z,98163.81
2023-04-27T23:54:45.474Z,98165.94
2023-04-27T23:57:12.072Z,98157.28
2023-04-27T23:59:38.699Z,98158.03
